sensor_id;sensor_type;location;lat;lon;timestamp;P1;durP1;ratioP1;P2;durP2;ratioP2
10529;SDS011;5313;48.834;9.228;2024-02-23T00:01:04;1.07;;;0.20;;
10529;SDS011;5313;48.834;9.228;2024-02-23T00:03:29;0.20;;;0.20;;
10529;SDS011;5313;48.834;9.228;2024-02-23T00:05:55;1.03;;;0.20;;
10529;SDS011;5313;48.834;9.228;2024-02-23T00:08:20;0.20;;;0.20;;
10529;SDS011;5313;48.834;9.228;2024-02-23T00:10:46;0.30;;;0.20;;
10529;SDS011;5313;48.834;9.228;2024-02-23T00:13:12;0.20;;;0.20;;
10529;SDS011;5313;48.834;9.228;2024-02-23T00:15:37;0.17;;;0.17;;
10529;SDS011;5313;48.834;9.228;2024-02-23T00:18:03;0.87;;;0.30;;
10529;SDS011;5313;48.834;9.228;2024-02-23T00:20:29;0.37;;;0.20;;
10529;SDS011;5313;48.834;9.228;2024-02-23T00:22:54;0.33;;;0.20;;
10529;SDS011;5313;48.834;9.228;2024-02-23T00:25:20;0.63;;;0.50;;
10529;SDS011;5313;48.834;9.228;2024-02-23T00:27:45;0.70;;;0.30;;
10529;SDS011;5313;48.834;9.228;2024-02-23T00:30:12;0.53;;;0.30;;
10529;SDS011;5313;48.834;9.228;2024-02-23T00:32:38;1.43;;;0.50;;
10529;SDS011;5313;48.834;9.228;2024-02-23T00:35:04;0.40;;;0.30;;
10529;SDS011;5313;48.834;9.228;2024-02-23T00:37:29;0.30;;;0.30;;
10529;SDS011;5313;48.834;9.228;2024-02-23T00:40:00;0.27;;;0.20;;
10529;SDS011;5313;48.834;9.228;2024-02-23T00:42:28;1.27;;;0.30;;
10529;SDS011;5313;48.834;9.228;2024-02-23T00:44:54;1.13;;;0.27;;
10529;SDS011;5313;48.834;9.228;2024-02-23T00:47:20;0.50;;;0.30;;
10529;SDS011;5313;48.834;9.228;2024-02-23T00:49:45;2.77;;;0.53;;
10529;SDS011;5313;48.834;9.228;2024-02-23T00:52:11;1.40;;;0.63;;
10529;SDS011;5313;48.834;9.228;2024-02-23T00:54:36;0.83;;;0.50;;
10529;SDS011;5313;48.834;9.228;2024-02-23T00:57:02;1.77;;;0.37;;
10529;SDS011;5313;48.834;9.228;2024-02-23T00:59:28;0.63;;;0.30;;
10529;SDS011;5313;48.834;9.228;2024-02-23T01:01:54;2.77;;;0.50;;
10529;SDS011;5313;48.834;9.228;2024-02-23T01:04:20;1.43;;;0.53;;
10529;SDS011;5313;48.834;9.228;2024-02-23T01:06:46;1.30;;;0.50;;
10529;SDS011;5313;48.834;9.228;2024-02-23T01:09:11;2.67;;;0.50;;
10529;SDS011;5313;48.834;9.228;2024-02-23T01:11:37;0.73;;;0.57;;
10529;SDS011;5313;48.834;9.228;2024-02-23T01:14:02;2.33;;;0.70;;
10529;SDS011;5313;48.834;9.228;2024-02-23T01:16:28;1.03;;;0.53;;
10529;SDS011;5313;48.834;9.228;2024-02-23T01:18:54;0.30;;;0.30;;
10529;SDS011;5313;48.834;9.228;2024-02-23T01:21:19;0.30;;;0.27;;
10529;SDS011;5313;48.834;9.228;2024-02-23T01:23:45;0.43;;;0.33;;
10529;SDS011;5313;48.834;9.228;2024-02-23T01:26:10;0.73;;;0.40;;
10529;SDS011;5313;48.834;9.228;2024-02-23T01:28:36;1.83;;;0.43;;
10529;SDS011;5313;48.834;9.228;2024-02-23T01:31:01;1.70;;;0.50;;
10529;SDS011;5313;48.834;9.228;2024-02-23T01:33:29;1.37;;;0.33;;
10529;SDS011;5313;48.834;9.228;2024-02-23T01:35:54;0.77;;;0.40;;
10529;SDS011;5313;48.834;9.228;2024-02-23T01:38:21;1.47;;;0.60;;
10529;SDS011;5313;48.834;9.228;2024-02-23T01:40:47;0.77;;;0.40;;
10529;SDS011;5313;48.834;9.228;2024-02-23T01:43:13;1.37;;;0.47;;
10529;SDS011;5313;48.834;9.228;2024-02-23T01:45:38;0.90;;;0.43;;
10529;SDS011;5313;48.834;9.228;2024-02-23T01:48:04;2.50;;;0.37;;
10529;SDS011;5313;48.834;9.228;2024-02-23T01:50:31;1.33;;;0.57;;
10529;SDS011;5313;48.834;9.228;2024-02-23T01:52:58;0.70;;;0.50;;
10529;SDS011;5313;48.834;9.228;2024-02-23T01:55:25;1.93;;;0.60;;
10529;SDS011;5313;48.834;9.228;2024-02-23T01:57:51;3.07;;;0.60;;
10529;SDS011;5313;48.834;9.228;2024-02-23T02:00:18;1.67;;;0.60;;
10529;SDS011;5313;48.834;9.228;2024-02-23T02:02:45;0.50;;;0.50;;
10529;SDS011;5313;48.834;9.228;2024-02-23T02:05:12;2.13;;;0.50;;
10529;SDS011;5313;48.834;9.228;2024-02-23T02:07:39;1.67;;;0.50;;
10529;SDS011;5313;48.834;9.228;2024-02-23T02:10:06;2.67;;;0.77;;
10529;SDS011;5313;48.834;9.228;2024-02-23T02:12:34;1.27;;;0.40;;
10529;SDS011;5313;48.834;9.228;2024-02-23T02:14:59;3.20;;;0.70;;
10529;SDS011;5313;48.834;9.228;2024-02-23T02:17:26;0.87;;;0.43;;
10529;SDS011;5313;48.834;9.228;2024-02-23T02:19:52;1.57;;;0.50;;
10529;SDS011;5313;48.834;9.228;2024-02-23T02:22:18;1.27;;;0.40;;
10529;SDS011;5313;48.834;9.228;2024-02-23T02:24:44;0.90;;;0.50;;
10529;SDS011;5313;48.834;9.228;2024-02-23T02:27:11;1.43;;;0.40;;
10529;SDS011;5313;48.834;9.228;2024-02-23T02:29:37;2.10;;;0.60;;
10529;SDS011;5313;48.834;9.228;2024-02-23T02:32:02;1.83;;;0.60;;
10529;SDS011;5313;48.834;9.228;2024-02-23T02:34:28;3.40;;;0.50;;
10529;SDS011;5313;48.834;9.228;2024-02-23T02:36:54;3.27;;;0.63;;
10529;SDS011;5313;48.834;9.228;2024-02-23T02:39:20;1.50;;;0.60;;
10529;SDS011;5313;48.834;9.228;2024-02-23T02:41:47;1.47;;;0.57;;
10529;SDS011;5313;48.834;9.228;2024-02-23T02:44:13;1.73;;;0.63;;
10529;SDS011;5313;48.834;9.228;2024-02-23T02:46:40;1.40;;;0.50;;
10529;SDS011;5313;48.834;9.228;2024-02-23T02:49:06;3.20;;;0.73;;
10529;SDS011;5313;48.834;9.228;2024-02-23T02:51:31;2.90;;;0.60;;
10529;SDS011;5313;48.834;9.228;2024-02-23T02:53:57;2.80;;;0.50;;
10529;SDS011;5313;48.834;9.228;2024-02-23T02:56:23;1.53;;;0.47;;
10529;SDS011;5313;48.834;9.228;2024-02-23T02:58:48;2.93;;;0.70;;
10529;SDS011;5313;48.834;9.228;2024-02-23T03:01:14;1.83;;;0.50;;
10529;SDS011;5313;48.834;9.228;2024-02-23T03:03:39;1.70;;;0.50;;
10529;SDS011;5313;48.834;9.228;2024-02-23T03:06:05;1.27;;;0.50;;
10529;SDS011;5313;48.834;9.228;2024-02-23T03:08:31;1.60;;;0.50;;
10529;SDS011;5313;48.834;9.228;2024-02-23T03:10:57;2.23;;;0.47;;
10529;SDS011;5313;48.834;9.228;2024-02-23T03:13:22;0.50;;;0.30;;
10529;SDS011;5313;48.834;9.228;2024-02-23T03:15:48;2.43;;;0.67;;
10529;SDS011;5313;48.834;9.228;2024-02-23T03:18:13;1.43;;;0.53;;
10529;SDS011;5313;48.834;9.228;2024-02-23T03:20:40;0.83;;;0.77;;
10529;SDS011;5313;48.834;9.228;2024-02-23T03:23:06;1.27;;;0.60;;
10529;SDS011;5313;48.834;9.228;2024-02-23T03:25:32;1.17;;;0.50;;
10529;SDS011;5313;48.834;9.228;2024-02-23T03:27:58;1.70;;;0.43;;
10529;SDS011;5313;48.834;9.228;2024-02-23T03:30:24;1.20;;;0.80;;
10529;SDS011;5313;48.834;9.228;2024-02-23T03:32:49;2.50;;;0.90;;
10529;SDS011;5313;48.834;9.228;2024-02-23T03:35:15;1.40;;;0.50;;
10529;SDS011;5313;48.834;9.228;2024-02-23T03:37:40;0.87;;;0.57;;
10529;SDS011;5313;48.834;9.228;2024-02-23T03:40:06;1.33;;;0.60;;
10529;SDS011;5313;48.834;9.228;2024-02-23T03:42:32;2.13;;;0.60;;
10529;SDS011;5313;48.834;9.228;2024-02-23T03:44:58;0.63;;;0.33;;
10529;SDS011;5313;48.834;9.228;2024-02-23T03:47:23;1.27;;;0.80;;
10529;SDS011;5313;48.834;9.228;2024-02-23T03:49:49;4.27;;;0.50;;
10529;SDS011;5313;48.834;9.228;2024-02-23T03:52:14;1.17;;;0.60;;
10529;SDS011;5313;48.834;9.228;2024-02-23T03:54:40;1.00;;;0.40;;
10529;SDS011;5313;48.834;9.228;2024-02-23T03:57:05;1.90;;;0.60;;
10529;SDS011;5313;48.834;9.228;2024-02-23T03:59:31;0.70;;;0.40;;
10529;SDS011;5313;48.834;9.228;2024-02-23T04:01:56;1.53;;;0.47;;
10529;SDS011;5313;48.834;9.228;2024-02-23T04:04:22;2.57;;;0.50;;
10529;SDS011;5313;48.834;9.228;2024-02-23T04:06:47;4.17;;;0.60;;
10529;SDS011;5313;48.834;9.228;2024-02-23T04:09:13;0.50;;;0.40;;
10529;SDS011;5313;48.834;9.228;2024-02-23T04:11:38;1.30;;;0.53;;
10529;SDS011;5313;48.834;9.228;2024-02-23T04:14:04;1.70;;;0.63;;
10529;SDS011;5313;48.834;9.228;2024-02-23T04:16:33;0.97;;;0.60;;
10529;SDS011;5313;48.834;9.228;2024-02-23T04:18:58;2.80;;;0.70;;
10529;SDS011;5313;48.834;9.228;2024-02-23T04:21:24;1.00;;;0.50;;
10529;SDS011;5313;48.834;9.228;2024-02-23T04:23:50;6.97;;;0.73;;
10529;SDS011;5313;48.834;9.228;2024-02-23T04:26:16;1.17;;;0.60;;
10529;SDS011;5313;48.834;9.228;2024-02-23T04:28:42;0.83;;;0.50;;
10529;SDS011;5313;48.834;9.228;2024-02-23T04:31:08;0.90;;;0.50;;
10529;SDS011;5313;48.834;9.228;2024-02-23T04:33:34;1.57;;;0.80;;
10529;SDS011;5313;48.834;9.228;2024-02-23T04:36:01;1.43;;;0.47;;
10529;SDS011;5313;48.834;9.228;2024-02-23T04:38:28;2.03;;;0.70;;
10529;SDS011;5313;48.834;9.228;2024-02-23T04:40:54;3.97;;;0.70;;
10529;SDS011;5313;48.834;9.228;2024-02-23T04:43:19;0.50;;;0.43;;
10529;SDS011;5313;48.834;9.228;2024-02-23T04:45:45;3.17;;;0.70;;
10529;SDS011;5313;48.834;9.228;2024-02-23T04:48:11;0.77;;;0.50;;
10529;SDS011;5313;48.834;9.228;2024-02-23T04:50:36;3.70;;;0.63;;
10529;SDS011;5313;48.834;9.228;2024-02-23T04:53:02;2.50;;;0.60;;
10529;SDS011;5313;48.834;9.228;2024-02-23T04:55:27;2.77;;;0.63;;
10529;SDS011;5313;48.834;9.228;2024-02-23T04:57:53;3.20;;;0.70;;
10529;SDS011;5313;48.834;9.228;2024-02-23T05:00:18;1.63;;;0.70;;
10529;SDS011;5313;48.834;9.228;2024-02-23T05:02:45;1.33;;;0.60;;
10529;SDS011;5313;48.834;9.228;2024-02-23T05:05:11;1.87;;;0.67;;
10529;SDS011;5313;48.834;9.228;2024-02-23T05:07:37;2.37;;;0.57;;
10529;SDS011;5313;48.834;9.228;2024-02-23T05:10:03;3.33;;;0.80;;
10529;SDS011;5313;48.834;9.228;2024-02-23T05:12:29;1.97;;;0.50;;
10529;SDS011;5313;48.834;9.228;2024-02-23T05:14:55;0.50;;;0.40;;
10529;SDS011;5313;48.834;9.228;2024-02-23T05:17:20;3.47;;;0.90;;
10529;SDS011;5313;48.834;9.228;2024-02-23T05:19:46;3.60;;;0.67;;
10529;SDS011;5313;48.834;9.228;2024-02-23T05:22:12;2.50;;;0.63;;
10529;SDS011;5313;48.834;9.228;2024-02-23T05:24:37;2.33;;;0.60;;
10529;SDS011;5313;48.834;9.228;2024-02-23T05:27:03;0.77;;;0.50;;
10529;SDS011;5313;48.834;9.228;2024-02-23T05:29:29;4.00;;;0.70;;
10529;SDS011;5313;48.834;9.228;2024-02-23T05:31:54;3.97;;;0.70;;
10529;SDS011;5313;48.834;9.228;2024-02-23T05:34:20;1.57;;;0.50;;
10529;SDS011;5313;48.834;9.228;2024-02-23T05:36:46;1.63;;;0.60;;
10529;SDS011;5313;48.834;9.228;2024-02-23T05:39:12;3.23;;;0.50;;
10529;SDS011;5313;48.834;9.228;2024-02-23T05:41:40;4.43;;;0.80;;
10529;SDS011;5313;48.834;9.228;2024-02-23T05:44:06;1.30;;;0.50;;
10529;SDS011;5313;48.834;9.228;2024-02-23T05:46:32;0.97;;;0.60;;
10529;SDS011;5313;48.834;9.228;2024-02-23T05:48:59;3.37;;;0.60;;
10529;SDS011;5313;48.834;9.228;2024-02-23T05:51:24;2.20;;;0.70;;
10529;SDS011;5313;48.834;9.228;2024-02-23T05:53:50;1.83;;;0.80;;
10529;SDS011;5313;48.834;9.228;2024-02-23T05:56:15;2.90;;;0.70;;
10529;SDS011;5313;48.834;9.228;2024-02-23T05:58:41;2.17;;;0.60;;
10529;SDS011;5313;48.834;9.228;2024-02-23T06:01:06;1.53;;;0.60;;
10529;SDS011;5313;48.834;9.228;2024-02-23T06:03:32;2.23;;;0.70;;
10529;SDS011;5313;48.834;9.228;2024-02-23T06:05:58;3.00;;;0.83;;
10529;SDS011;5313;48.834;9.228;2024-02-23T06:08:23;1.77;;;0.80;;
10529;SDS011;5313;48.834;9.228;2024-02-23T06:10:49;4.43;;;0.60;;
10529;SDS011;5313;48.834;9.228;2024-02-23T06:13:14;1.67;;;0.50;;
10529;SDS011;5313;48.834;9.228;2024-02-23T06:15:40;4.10;;;0.90;;
10529;SDS011;5313;48.834;9.228;2024-02-23T06:18:05;1.07;;;0.70;;
10529;SDS011;5313;48.834;9.228;2024-02-23T06:20:31;3.17;;;0.57;;
10529;SDS011;5313;48.834;9.228;2024-02-23T06:22:57;1.97;;;0.80;;
10529;SDS011;5313;48.834;9.228;2024-02-23T06:25:22;0.83;;;0.70;;
10529;SDS011;5313;48.834;9.228;2024-02-23T06:27:48;4.00;;;1.00;;
10529;SDS011;5313;48.834;9.228;2024-02-23T06:30:13;4.17;;;0.93;;
10529;SDS011;5313;48.834;9.228;2024-02-23T06:32:39;2.67;;;1.20;;
10529;SDS011;5313;48.834;9.228;2024-02-23T06:35:05;2.60;;;1.40;;
10529;SDS011;5313;48.834;9.228;2024-02-23T06:37:31;4.37;;;1.50;;
10529;SDS011;5313;48.834;9.228;2024-02-23T06:39:57;5.47;;;2.23;;
10529;SDS011;5313;48.834;9.228;2024-02-23T06:42:23;5.67;;;1.40;;
10529;SDS011;5313;48.834;9.228;2024-02-23T06:44:49;5.33;;;1.40;;
10529;SDS011;5313;48.834;9.228;2024-02-23T06:47:15;4.07;;;1.50;;
10529;SDS011;5313;48.834;9.228;2024-02-23T06:49:43;4.33;;;1.60;;
10529;SDS011;5313;48.834;9.228;2024-02-23T06:52:11;3.50;;;1.53;;
10529;SDS011;5313;48.834;9.228;2024-02-23T06:54:36;5.90;;;1.93;;
10529;SDS011;5313;48.834;9.228;2024-02-23T06:57:02;7.03;;;1.57;;
10529;SDS011;5313;48.834;9.228;2024-02-23T06:59:29;5.23;;;1.50;;
10529;SDS011;5313;48.834;9.228;2024-02-23T07:01:54;3.73;;;1.40;;
10529;SDS011;5313;48.834;9.228;2024-02-23T07:04:20;4.70;;;1.50;;
10529;SDS011;5313;48.834;9.228;2024-02-23T07:06:46;3.57;;;1.33;;
10529;SDS011;5313;48.834;9.228;2024-02-23T07:09:12;4.77;;;2.10;;
10529;SDS011;5313;48.834;9.228;2024-02-23T07:11:38;3.97;;;1.63;;
10529;SDS011;5313;48.834;9.228;2024-02-23T07:14:06;3.00;;;1.50;;
10529;SDS011;5313;48.834;9.228;2024-02-23T07:16:32;4.33;;;1.90;;
10529;SDS011;5313;48.834;9.228;2024-02-23T07:18:57;3.37;;;1.40;;
10529;SDS011;5313;48.834;9.228;2024-02-23T07:21:23;4.20;;;1.77;;
10529;SDS011;5313;48.834;9.228;2024-02-23T07:23:49;4.33;;;1.47;;
10529;SDS011;5313;48.834;9.228;2024-02-23T07:26:14;4.83;;;1.53;;
10529;SDS011;5313;48.834;9.228;2024-02-23T07:28:40;3.97;;;1.53;;
10529;SDS011;5313;48.834;9.228;2024-02-23T07:31:05;4.20;;;1.90;;
10529;SDS011;5313;48.834;9.228;2024-02-23T07:33:31;3.93;;;1.20;;
10529;SDS011;5313;48.834;9.228;2024-02-23T07:35:56;5.40;;;1.27;;
10529;SDS011;5313;48.834;9.228;2024-02-23T07:38:22;2.73;;;1.10;;
10529;SDS011;5313;48.834;9.228;2024-02-23T07:40:47;2.90;;;1.10;;
10529;SDS011;5313;48.834;9.228;2024-02-23T07:43:13;3.23;;;1.00;;
10529;SDS011;5313;48.834;9.228;2024-02-23T07:45:38;5.30;;;1.10;;
10529;SDS011;5313;48.834;9.228;2024-02-23T07:48:04;2.90;;;0.90;;
10529;SDS011;5313;48.834;9.228;2024-02-23T07:50:30;1.10;;;0.60;;
10529;SDS011;5313;48.834;9.228;2024-02-23T07:52:55;1.40;;;0.90;;
10529;SDS011;5313;48.834;9.228;2024-02-23T07:55:21;3.27;;;0.83;;
10529;SDS011;5313;48.834;9.228;2024-02-23T07:57:47;3.30;;;0.73;;
10529;SDS011;5313;48.834;9.228;2024-02-23T08:00:13;4.47;;;0.67;;
10529;SDS011;5313;48.834;9.228;2024-02-23T08:02:39;2.37;;;0.77;;
10529;SDS011;5313;48.834;9.228;2024-02-23T08:05:06;2.80;;;0.90;;
10529;SDS011;5313;48.834;9.228;2024-02-23T08:07:32;1.53;;;0.70;;
10529;SDS011;5313;48.834;9.228;2024-02-23T08:09:57;3.53;;;0.77;;
10529;SDS011;5313;48.834;9.228;2024-02-23T08:12:23;1.50;;;0.70;;
10529;SDS011;5313;48.834;9.228;2024-02-23T08:14:48;1.77;;;0.80;;
10529;SDS011;5313;48.834;9.228;2024-02-23T08:17:18;4.90;;;1.23;;
10529;SDS011;5313;48.834;9.228;2024-02-23T08:19:44;1.27;;;0.80;;
10529;SDS011;5313;48.834;9.228;2024-02-23T08:22:09;1.47;;;0.60;;
10529;SDS011;5313;48.834;9.228;2024-02-23T08:24:35;1.23;;;0.80;;
10529;SDS011;5313;48.834;9.228;2024-02-23T08:27:00;2.10;;;0.60;;
10529;SDS011;5313;48.834;9.228;2024-02-23T08:29:26;3.63;;;0.93;;
10529;SDS011;5313;48.834;9.228;2024-02-23T08:31:52;1.90;;;0.83;;
10529;SDS011;5313;48.834;9.228;2024-02-23T08:34:17;5.60;;;0.80;;
10529;SDS011;5313;48.834;9.228;2024-02-23T08:36:43;1.33;;;0.80;;
10529;SDS011;5313;48.834;9.228;2024-02-23T08:39:09;2.23;;;0.83;;
10529;SDS011;5313;48.834;9.228;2024-02-23T08:41:35;0.90;;;0.70;;
10529;SDS011;5313;48.834;9.228;2024-02-23T08:44:00;4.47;;;1.07;;
10529;SDS011;5313;48.834;9.228;2024-02-23T08:46:26;2.10;;;0.70;;
10529;SDS011;5313;48.834;9.228;2024-02-23T08:48:51;4.30;;;0.90;;
10529;SDS011;5313;48.834;9.228;2024-02-23T08:51:17;1.77;;;1.00;;
10529;SDS011;5313;48.834;9.228;2024-02-23T08:53:42;2.27;;;0.80;;
10529;SDS011;5313;48.834;9.228;2024-02-23T08:56:08;1.13;;;0.80;;
10529;SDS011;5313;48.834;9.228;2024-02-23T08:58:34;2.73;;;0.97;;
10529;SDS011;5313;48.834;9.228;2024-02-23T09:01:00;2.77;;;0.90;;
10529;SDS011;5313;48.834;9.228;2024-02-23T09:03:25;2.67;;;0.77;;
10529;SDS011;5313;48.834;9.228;2024-02-23T09:05:51;3.07;;;1.10;;
10529;SDS011;5313;48.834;9.228;2024-02-23T09:08:16;2.23;;;0.73;;
10529;SDS011;5313;48.834;9.228;2024-02-23T09:10:42;1.33;;;0.70;;
10529;SDS011;5313;48.834;9.228;2024-02-23T09:13:07;1.70;;;0.80;;
10529;SDS011;5313;48.834;9.228;2024-02-23T09:15:33;3.10;;;0.93;;
10529;SDS011;5313;48.834;9.228;2024-02-23T09:17:58;1.87;;;0.80;;
10529;SDS011;5313;48.834;9.228;2024-02-23T09:20:24;2.00;;;0.80;;
10529;SDS011;5313;48.834;9.228;2024-02-23T09:22:49;2.73;;;0.80;;
10529;SDS011;5313;48.834;9.228;2024-02-23T09:25:15;3.17;;;1.00;;
10529;SDS011;5313;48.834;9.228;2024-02-23T09:27:41;3.30;;;0.70;;
10529;SDS011;5313;48.834;9.228;2024-02-23T09:30:12;2.20;;;0.80;;
10529;SDS011;5313;48.834;9.228;2024-02-23T09:32:38;1.57;;;0.70;;
10529;SDS011;5313;48.834;9.228;2024-02-23T09:35:03;7.80;;;1.10;;
10529;SDS011;5313;48.834;9.228;2024-02-23T09:37:30;3.60;;;1.20;;
10529;SDS011;5313;48.834;9.228;2024-02-23T09:39:56;2.13;;;0.90;;
10529;SDS011;5313;48.834;9.228;2024-02-23T09:42:22;3.10;;;1.23;;
10529;SDS011;5313;48.834;9.228;2024-02-23T09:44:57;1.70;;;0.73;;
10529;SDS011;5313;48.834;9.228;2024-02-23T09:47:28;2.20;;;0.90;;
10529;SDS011;5313;48.834;9.228;2024-02-23T09:49:54;2.93;;;1.00;;
10529;SDS011;5313;48.834;9.228;2024-02-23T09:52:21;4.57;;;1.17;;
10529;SDS011;5313;48.834;9.228;2024-02-23T09:54:49;2.93;;;1.00;;
10529;SDS011;5313;48.834;9.228;2024-02-23T09:57:15;3.10;;;1.10;;
10529;SDS011;5313;48.834;9.228;2024-02-23T09:59:42;5.03;;;1.67;;
10529;SDS011;5313;48.834;9.228;2024-02-23T10:02:08;3.73;;;1.30;;
10529;SDS011;5313;48.834;9.228;2024-02-23T10:04:38;1.57;;;0.70;;
10529;SDS011;5313;48.834;9.228;2024-02-23T10:07:05;1.87;;;0.70;;
10529;SDS011;5313;48.834;9.228;2024-02-23T10:09:31;6.33;;;0.87;;
10529;SDS011;5313;48.834;9.228;2024-02-23T10:11:57;1.90;;;0.83;;
10529;SDS011;5313;48.834;9.228;2024-02-23T10:14:23;3.47;;;1.03;;
10529;SDS011;5313;48.834;9.228;2024-02-23T10:16:48;2.37;;;0.73;;
10529;SDS011;5313;48.834;9.228;2024-02-23T10:19:21;3.53;;;0.83;;
10529;SDS011;5313;48.834;9.228;2024-02-23T10:21:47;1.80;;;1.17;;
10529;SDS011;5313;48.834;9.228;2024-02-23T10:24:16;1.17;;;0.53;;
10529;SDS011;5313;48.834;9.228;2024-02-23T10:26:42;2.93;;;0.80;;
10529;SDS011;5313;48.834;9.228;2024-02-23T10:29:08;3.83;;;0.90;;
10529;SDS011;5313;48.834;9.228;2024-02-23T10:31:35;3.77;;;0.80;;
10529;SDS011;5313;48.834;9.228;2024-02-23T10:34:08;4.10;;;0.80;;
10529;SDS011;5313;48.834;9.228;2024-02-23T10:36:37;2.43;;;1.20;;
10529;SDS011;5313;48.834;9.228;2024-02-23T10:39:07;5.17;;;1.10;;
10529;SDS011;5313;48.834;9.228;2024-02-23T10:41:34;1.40;;;0.70;;
10529;SDS011;5313;48.834;9.228;2024-02-23T10:44:02;2.97;;;1.23;;
10529;SDS011;5313;48.834;9.228;2024-02-23T10:46:30;2.73;;;1.10;;
10529;SDS011;5313;48.834;9.228;2024-02-23T10:48:58;3.13;;;0.70;;
10529;SDS011;5313;48.834;9.228;2024-02-23T10:51:26;5.03;;;1.07;;
10529;SDS011;5313;48.834;9.228;2024-02-23T10:53:52;3.50;;;1.40;;
10529;SDS011;5313;48.834;9.228;2024-02-23T10:56:18;3.20;;;0.73;;
10529;SDS011;5313;48.834;9.228;2024-02-23T10:58:44;4.40;;;0.87;;
10529;SDS011;5313;48.834;9.228;2024-02-23T11:01:10;3.17;;;0.80;;
10529;SDS011;5313;48.834;9.228;2024-02-23T11:03:38;2.00;;;0.80;;
10529;SDS011;5313;48.834;9.228;2024-02-23T11:06:07;4.03;;;1.17;;
10529;SDS011;5313;48.834;9.228;2024-02-23T11:08:33;5.27;;;1.40;;
10529;SDS011;5313;48.834;9.228;2024-02-23T11:11:08;5.07;;;1.20;;
10529;SDS011;5313;48.834;9.228;2024-02-23T11:13:34;3.07;;;0.80;;
10529;SDS011;5313;48.834;9.228;2024-02-23T11:16:07;5.00;;;1.27;;
10529;SDS011;5313;48.834;9.228;2024-02-23T11:18:37;4.77;;;1.17;;
10529;SDS011;5313;48.834;9.228;2024-02-23T11:21:05;3.67;;;1.10;;
10529;SDS011;5313;48.834;9.228;2024-02-23T11:23:43;2.67;;;0.90;;
10529;SDS011;5313;48.834;9.228;2024-02-23T11:26:10;3.57;;;0.83;;
10529;SDS011;5313;48.834;9.228;2024-02-23T11:31:19;3.23;;;1.13;;
10529;SDS011;5313;48.834;9.228;2024-02-23T11:33:49;3.73;;;0.80;;
10529;SDS011;5313;48.834;9.228;2024-02-23T11:36:24;4.83;;;0.90;;
10529;SDS011;5313;48.834;9.228;2024-02-23T11:38:54;3.80;;;0.80;;
10529;SDS011;5313;48.834;9.228;2024-02-23T11:41:21;4.20;;;1.23;;
10529;SDS011;5313;48.834;9.228;2024-02-23T11:43:48;2.50;;;0.97;;
10529;SDS011;5313;48.834;9.228;2024-02-23T11:46:15;3.37;;;0.80;;
10529;SDS011;5313;48.834;9.228;2024-02-23T11:48:41;4.50;;;0.80;;
10529;SDS011;5313;48.834;9.228;2024-02-23T11:51:08;2.87;;;0.70;;
10529;SDS011;5313;48.834;9.228;2024-02-23T11:53:35;2.13;;;0.80;;
10529;SDS011;5313;48.834;9.228;2024-02-23T11:56:03;4.33;;;0.83;;
10529;SDS011;5313;48.834;9.228;2024-02-23T11:58:29;4.33;;;1.00;;
10529;SDS011;5313;48.834;9.228;2024-02-23T12:00:55;2.23;;;1.00;;
10529;SDS011;5313;48.834;9.228;2024-02-23T12:03:21;2.97;;;1.00;;
10529;SDS011;5313;48.834;9.228;2024-02-23T12:05:49;5.57;;;1.07;;
10529;SDS011;5313;48.834;9.228;2024-02-23T12:08:15;2.83;;;1.00;;
10529;SDS011;5313;48.834;9.228;2024-02-23T12:10:42;5.93;;;1.73;;
10529;SDS011;5313;48.834;9.228;2024-02-23T12:13:08;2.90;;;1.10;;
10529;SDS011;5313;48.834;9.228;2024-02-23T12:15:33;3.70;;;1.30;;
10529;SDS011;5313;48.834;9.228;2024-02-23T12:17:59;5.93;;;1.10;;
10529;SDS011;5313;48.834;9.228;2024-02-23T12:20:27;7.20;;;1.53;;
10529;SDS011;5313;48.834;9.228;2024-02-23T12:22:54;3.03;;;1.33;;
10529;SDS011;5313;48.834;9.228;2024-02-23T12:25:21;3.50;;;0.83;;
10529;SDS011;5313;48.834;9.228;2024-02-23T12:27:47;6.07;;;1.40;;
10529;SDS011;5313;48.834;9.228;2024-02-23T12:30:19;2.33;;;0.73;;
10529;SDS011;5313;48.834;9.228;2024-02-23T12:32:45;3.30;;;1.00;;
10529;SDS011;5313;48.834;9.228;2024-02-23T12:35:14;3.60;;;0.90;;
10529;SDS011;5313;48.834;9.228;2024-02-23T12:37:40;4.17;;;1.07;;
10529;SDS011;5313;48.834;9.228;2024-02-23T12:40:08;2.00;;;0.77;;
10529;SDS011;5313;48.834;9.228;2024-02-23T12:42:34;6.33;;;1.30;;
10529;SDS011;5313;48.834;9.228;2024-02-23T12:45:00;3.83;;;0.93;;
10529;SDS011;5313;48.834;9.228;2024-02-23T12:47:26;4.47;;;0.90;;
10529;SDS011;5313;48.834;9.228;2024-02-23T12:49:51;5.37;;;0.77;;
10529;SDS011;5313;48.834;9.228;2024-02-23T12:52:16;4.97;;;1.00;;
10529;SDS011;5313;48.834;9.228;2024-02-23T12:54:42;2.13;;;0.70;;
10529;SDS011;5313;48.834;9.228;2024-02-23T12:57:07;3.10;;;1.00;;
10529;SDS011;5313;48.834;9.228;2024-02-23T12:59:33;3.43;;;1.07;;
10529;SDS011;5313;48.834;9.228;2024-02-23T13:01:59;2.80;;;1.20;;
10529;SDS011;5313;48.834;9.228;2024-02-23T13:04:24;4.70;;;1.27;;
10529;SDS011;5313;48.834;9.228;2024-02-23T13:06:50;5.27;;;1.33;;
10529;SDS011;5313;48.834;9.228;2024-02-23T13:09:15;2.27;;;1.00;;
10529;SDS011;5313;48.834;9.228;2024-02-23T13:11:41;4.13;;;0.90;;
10529;SDS011;5313;48.834;9.228;2024-02-23T13:14:07;4.83;;;0.93;;
10529;SDS011;5313;48.834;9.228;2024-02-23T13:16:34;2.40;;;0.93;;
10529;SDS011;5313;48.834;9.228;2024-02-23T13:18:59;6.33;;;1.13;;
10529;SDS011;5313;48.834;9.228;2024-02-23T13:21:25;2.63;;;0.80;;
10529;SDS011;5313;48.834;9.228;2024-02-23T13:23:51;3.57;;;0.97;;
10529;SDS011;5313;48.834;9.228;2024-02-23T13:26:16;3.53;;;1.00;;
10529;SDS011;5313;48.834;9.228;2024-02-23T13:28:42;3.00;;;1.00;;
10529;SDS011;5313;48.834;9.228;2024-02-23T13:31:09;4.57;;;1.17;;
10529;SDS011;5313;48.834;9.228;2024-02-23T13:33:35;2.63;;;1.40;;
10529;SDS011;5313;48.834;9.228;2024-02-23T13:36:00;2.20;;;0.80;;
10529;SDS011;5313;48.834;9.228;2024-02-23T13:38:26;4.10;;;0.93;;
10529;SDS011;5313;48.834;9.228;2024-02-23T13:40:51;5.80;;;1.37;;
10529;SDS011;5313;48.834;9.228;2024-02-23T13:43:17;3.30;;;1.13;;
10529;SDS011;5313;48.834;9.228;2024-02-23T13:45:50;4.37;;;1.10;;
10529;SDS011;5313;48.834;9.228;2024-02-23T13:48:17;2.27;;;0.90;;
10529;SDS011;5313;48.834;9.228;2024-02-23T13:50:43;6.90;;;1.13;;
10529;SDS011;5313;48.834;9.228;2024-02-23T13:53:10;3.33;;;1.20;;
10529;SDS011;5313;48.834;9.228;2024-02-23T13:55:37;3.03;;;1.20;;
10529;SDS011;5313;48.834;9.228;2024-02-23T13:58:02;3.80;;;1.03;;
10529;SDS011;5313;48.834;9.228;2024-02-23T14:00:28;5.40;;;0.90;;
10529;SDS011;5313;48.834;9.228;2024-02-23T14:02:54;4.10;;;0.93;;
10529;SDS011;5313;48.834;9.228;2024-02-23T14:05:19;3.30;;;1.10;;
10529;SDS011;5313;48.834;9.228;2024-02-23T14:07:46;5.90;;;1.17;;
10529;SDS011;5313;48.834;9.228;2024-02-23T14:10:12;4.33;;;0.90;;
10529;SDS011;5313;48.834;9.228;2024-02-23T14:12:38;2.47;;;0.90;;
10529;SDS011;5313;48.834;9.228;2024-02-23T14:15:05;5.03;;;1.30;;
10529;SDS011;5313;48.834;9.228;2024-02-23T14:17:31;2.67;;;1.13;;
10529;SDS011;5313;48.834;9.228;2024-02-23T14:19:56;3.17;;;1.40;;
10529;SDS011;5313;48.834;9.228;2024-02-23T14:22:22;5.53;;;0.93;;
10529;SDS011;5313;48.834;9.228;2024-02-23T14:24:47;3.80;;;1.10;;
10529;SDS011;5313;48.834;9.228;2024-02-23T14:27:13;3.50;;;1.93;;
10529;SDS011;5313;48.834;9.228;2024-02-23T14:29:38;5.57;;;1.10;;
10529;SDS011;5313;48.834;9.228;2024-02-23T14:32:04;5.53;;;1.30;;
10529;SDS011;5313;48.834;9.228;2024-02-23T14:34:29;6.80;;;1.10;;
10529;SDS011;5313;48.834;9.228;2024-02-23T14:36:55;6.70;;;1.53;;
10529;SDS011;5313;48.834;9.228;2024-02-23T14:39:21;1.80;;;0.90;;
10529;SDS011;5313;48.834;9.228;2024-02-23T14:41:47;4.53;;;1.30;;
10529;SDS011;5313;48.834;9.228;2024-02-23T14:44:13;5.10;;;1.40;;
10529;SDS011;5313;48.834;9.228;2024-02-23T14:46:39;7.00;;;1.27;;
10529;SDS011;5313;48.834;9.228;2024-02-23T14:49:05;6.97;;;1.43;;
10529;SDS011;5313;48.834;9.228;2024-02-23T14:51:31;3.67;;;1.17;;
10529;SDS011;5313;48.834;9.228;2024-02-23T14:53:57;3.37;;;1.00;;
10529;SDS011;5313;48.834;9.228;2024-02-23T14:56:22;3.47;;;1.37;;